sensor_id;sensor_type;location;lat;lon;timestamp;pressure;altitude;pressure_sealevel;temperature;humidity
35647;BME280;28680;45.642;13.756;2023-02-03T00:55:42;102176.66;;;7.01;100.00
35647;BME280;28680;45.642;13.756;2023-02-03T00:58:09;102177.66;;;6.98;100.00
35647;BME280;28680;45.642;13.756;2023-02-03T01:00:34;102177.28;;;7.08;100.00
35647;BME280;28680;45.642;13.756;2023-02-03T01:03:00;102178.75;;;7.15;100.00
35647;BME280;28680;45.642;13.756;2023-02-03T01:05:26;102182.06;;;7.18;100.00
35647;BME280;28680;45.642;13.756;2023-02-03T01:07:52;102181.34;;;7.15;100.00
35647;BME280;28680;45.642;13.756;2023-02-03T01:10:18;102190.22;;;7.11;100.00
35647;BME280;28680;45.642;13.756;2023-02-03T01:12:44;102195.31;;;7.14;100.00
35647;BME280;28680;45.642;13.756;2023-02-03T01:15:10;102195.72;;;7.03;100.00
35647;BME280;28680;45.642;13.756;2023-02-03T01:17:36;102192.75;;;7.12;100.00
35647;BME280;28680;45.642;13.756;2023-02-03T01:20:03;102186.44;;;7.18;100.00
35647;BME280;28680;45.642;13.756;2023-02-03T01:22:30;102190.91;;;7.14;100.00
35647;BME280;28680;45.642;13.756;2023-02-03T01:24:56;102186.63;;;7.13;100.00
35647;BME280;28680;45.642;13.756;2023-02-03T01:27:22;102186.88;;;7.07;100.00
35647;BME280;28680;45.642;13.756;2023-02-03T01:29:48;102188.63;;;7.07;100.00
35647;BME280;28680;45.642;13.756;2023-02-03T01:32:14;102187.84;;;7.05;100.00
35647;BME280;28680;45.642;13.756;2023-02-03T01:34:40;102181.81;;;7.02;100.00
35647;BME280;28680;45.642;13.756;2023-02-03T01:37:06;102191.00;;;6.91;100.00
35647;BME280;28680;45.642;13.756;2023-02-03T01:39:31;102187.56;;;6.90;100.00
35647;BME280;28680;45.642;13.756;2023-02-03T01:41:57;102181.56;;;6.88;100.00
35647;BME280;28680;45.642;13.756;2023-02-03T01:44:49;102177.47;;;6.81;100.00
35647;BME280;28680;45.642;13.756;2023-02-03T01:50:05;102175.03;;;6.76;100.00
35647;BME280;28680;45.642;13.756;2023-02-03T01:52:35;102163.13;;;6.91;100.00
35647;BME280;28680;45.642;13.756;2023-02-03T01:55:04;102154.47;;;6.91;100.00
35647;BME280;28680;45.642;13.756;2023-02-03T01:57:42;102147.22;;;6.97;100.00
35647;BME280;28680;45.642;13.756;2023-02-03T02:00:11;102149.41;;;7.08;100.00
35647;BME280;28680;45.642;13.756;2023-02-03T02:02:36;102157.44;;;7.03;100.00
35647;BME280;28680;45.642;13.756;2023-02-03T02:07:39;102151.22;;;7.06;100.00
35647;BME280;28680;45.642;13.756;2023-02-03T02:10:07;102155.56;;;7.07;100.00
35647;BME280;28680;45.642;13.756;2023-02-03T02:12:33;102158.47;;;6.99;100.00
35647;BME280;28680;45.642;13.756;2023-02-03T02:14:59;102152.53;;;6.96;100.00
35647;BME280;28680;45.642;13.756;2023-02-03T02:29:01;102135.47;;;6.87;100.00
35647;BME280;28680;45.642;13.756;2023-02-03T02:32:19;102135.25;;;6.92;100.00
35647;BME280;28680;45.642;13.756;2023-02-03T02:43:24;102146.22;;;7.01;100.00
35647;BME280;28680;45.642;13.756;2023-02-03T02:46:04;102150.66;;;6.99;100.00
35647;BME280;28680;45.642;13.756;2023-02-03T02:51:31;102142.00;;;6.97;100.00
35647;BME280;28680;45.642;13.756;2023-02-03T02:54:02;102146.25;;;7.00;100.00
35647;BME280;28680;45.642;13.756;2023-02-03T02:56:31;102149.84;;;6.97;100.00
35647;BME280;28680;45.642;13.756;2023-02-03T02:59:01;102158.75;;;6.92;100.00
35647;BME280;28680;45.642;13.756;2023-02-03T03:01:30;102165.75;;;6.91;100.00
35647;BME280;28680;45.642;13.756;2023-02-03T03:03:58;102164.91;;;6.91;100.00
35647;BME280;28680;45.642;13.756;2023-02-03T03:10:00;102182.09;;;6.96;100.00
35647;BME280;28680;45.642;13.756;2023-02-03T03:12:34;102171.69;;;6.95;100.00
35647;BME280;28680;45.642;13.756;2023-02-03T03:15:06;102178.78;;;6.91;100.00
35647;BME280;28680;45.642;13.756;2023-02-03T03:17:40;102189.50;;;6.85;100.00
35647;BME280;28680;45.642;13.756;2023-02-03T03:20:16;102191.38;;;6.81;100.00
35647;BME280;28680;45.642;13.756;2023-02-03T03:22:51;102192.34;;;6.79;100.00
35647;BME280;28680;45.642;13.756;2023-02-03T03:25:23;102191.66;;;6.74;100.00
35647;BME280;28680;45.642;13.756;2023-02-03T03:27:55;102192.50;;;6.74;100.00
35647;BME280;28680;45.642;13.756;2023-02-03T03:30:28;102194.22;;;6.75;100.00
35647;BME280;28680;45.642;13.756;2023-02-03T03:32:55;102191.97;;;6.66;100.00
35647;BME280;28680;45.642;13.756;2023-02-03T03:35:27;102201.66;;;6.62;100.00
35647;BME280;28680;45.642;13.756;2023-02-03T03:38:04;102203.94;;;6.48;100.00
35647;BME280;28680;45.642;13.756;2023-02-03T03:40:42;102214.78;;;6.37;100.00
35647;BME280;28680;45.642;13.756;2023-02-03T03:43:17;102214.63;;;6.42;100.00
35647;BME280;28680;45.642;13.756;2023-02-03T03:46:02;102211.25;;;6.38;100.00
35647;BME280;28680;45.642;13.756;2023-02-03T03:48:57;102221.03;;;6.33;100.00
35647;BME280;28680;45.642;13.756;2023-02-03T03:51:36;102212.56;;;6.50;100.00
35647;BME280;28680;45.642;13.756;2023-02-03T03:54:08;102211.22;;;6.63;100.00
35647;BME280;28680;45.642;13.756;2023-02-03T03:56:56;102222.78;;;6.56;100.00
35647;BME280;28680;45.642;13.756;2023-02-03T03:59:25;102229.28;;;6.68;100.00
35647;BME280;28680;45.642;13.756;2023-02-03T04:01:53;102227.75;;;6.62;100.00
35647;BME280;28680;45.642;13.756;2023-02-03T04:04:22;102240.31;;;6.53;100.00
35647;BME280;28680;45.642;13.756;2023-02-03T04:06:49;102242.31;;;6.44;100.00
35647;BME280;28680;45.642;13.756;2023-02-03T04:09:17;102250.63;;;6.32;100.00
35647;BME280;28680;45.642;13.756;2023-02-03T04:11:43;102249.72;;;6.33;100.00
35647;BME280;28680;45.642;13.756;2023-02-03T04:14:29;102252.75;;;6.21;100.00
35647;BME280;28680;45.642;13.756;2023-02-03T04:16:57;102247.38;;;6.25;100.00
35647;BME280;28680;45.642;13.756;2023-02-03T04:19:23;102237.00;;;6.24;100.00
35647;BME280;28680;45.642;13.756;2023-02-03T04:21:50;102240.22;;;6.07;100.00
35647;BME280;28680;45.642;13.756;2023-02-03T04:24:16;102250.22;;;5.93;100.00
35647;BME280;28680;45.642;13.756;2023-02-03T04:26:42;102258.63;;;6.02;100.00
35647;BME280;28680;45.642;13.756;2023-02-03T04:29:08;102263.81;;;6.02;100.00
35647;BME280;28680;45.642;13.756;2023-02-03T04:31:33;102265.81;;;5.94;100.00
35647;BME280;28680;45.642;13.756;2023-02-03T04:33:59;102260.75;;;5.90;100.00
35647;BME280;28680;45.642;13.756;2023-02-03T04:36:25;102259.13;;;5.87;100.00
35647;BME280;28680;45.642;13.756;2023-02-03T04:38:51;102263.88;;;6.01;100.00
35647;BME280;28680;45.642;13.756;2023-02-03T04:41:17;102262.22;;;6.23;100.00
35647;BME280;28680;45.642;13.756;2023-02-03T04:43:44;102259.59;;;6.23;100.00
35647;BME280;28680;45.642;13.756;2023-02-03T04:46:09;102270.25;;;6.17;100.00
35647;BME280;28680;45.642;13.756;2023-02-03T04:48:36;102275.25;;;6.23;100.00
35647;BME280;28680;45.642;13.756;2023-02-03T04:51:06;102282.22;;;6.23;100.00
35647;BME280;28680;45.642;13.756;2023-02-03T04:53:33;102278.56;;;6.29;100.00
35647;BME280;28680;45.642;13.756;2023-02-03T04:55:59;102284.88;;;6.21;100.00
35647;BME280;28680;45.642;13.756;2023-02-03T04:58:25;102282.56;;;6.14;100.00
35647;BME280;28680;45.642;13.756;2023-02-03T05:00:52;102277.97;;;5.95;100.00
35647;BME280;28680;45.642;13.756;2023-02-03T05:03:19;102287.16;;;5.80;100.00
35647;BME280;28680;45.642;13.756;2023-02-03T05:05:48;102285.59;;;5.75;100.00
35647;BME280;28680;45.642;13.756;2023-02-03T05:08:13;102285.59;;;5.75;100.00
35647;BME280;28680;45.642;13.756;2023-02-03T05:10:39;102278.88;;;5.68;100.00
35647;BME280;28680;45.642;13.756;2023-02-03T05:13:05;102283.09;;;5.72;100.00
35647;BME280;28680;45.642;13.756;2023-02-03T05:15:32;102291.13;;;5.65;100.00
35647;BME280;28680;45.642;13.756;2023-02-03T05:17:58;102293.22;;;5.54;100.00
35647;BME280;28680;45.642;13.756;2023-02-03T05:20:24;102303.38;;;5.62;100.00
35647;BME280;28680;45.642;13.756;2023-02-03T05:22:50;102308.56;;;5.63;100.00
35647;BME280;28680;45.642;13.756;2023-02-03T05:25:16;102305.16;;;5.61;100.00
35647;BME280;28680;45.642;13.756;2023-02-03T05:27:42;102301.31;;;5.72;100.00
35647;BME280;28680;45.642;13.756;2023-02-03T05:30:10;102307.34;;;5.74;100.00
35647;BME280;28680;45.642;13.756;2023-02-03T05:32:36;102309.59;;;5.84;100.00
35647;BME280;28680;45.642;13.756;2023-02-03T05:35:03;102309.94;;;6.00;100.00
35647;BME280;28680;45.642;13.756;2023-02-03T05:37:28;102298.72;;;5.98;100.00
35647;BME280;28680;45.642;13.756;2023-02-03T05:39:54;102282.25;;;5.98;100.00
35647;BME280;28680;45.642;13.756;2023-02-03T05:42:48;102280.22;;;6.06;100.00
35647;BME280;28680;45.642;13.756;2023-02-03T05:45:15;102281.56;;;5.91;100.00
35647;BME280;28680;45.642;13.756;2023-02-03T05:47:41;102282.56;;;5.87;100.00
35647;BME280;28680;45.642;13.756;2023-02-03T05:50:07;102286.31;;;5.78;100.00
35647;BME280;28680;45.642;13.756;2023-02-03T05:52:34;102288.44;;;5.67;100.00
35647;BME280;28680;45.642;13.756;2023-02-03T05:55:00;102289.97;;;5.73;100.00
35647;BME280;28680;45.642;13.756;2023-02-03T05:57:26;102284.59;;;5.79;100.00
35647;BME280;28680;45.642;13.756;2023-02-03T05:59:52;102283.28;;;5.92;100.00
35647;BME280;28680;45.642;13.756;2023-02-03T06:02:18;102294.00;;;5.83;100.00
35647;BME280;28680;45.642;13.756;2023-02-03T06:04:44;102299.50;;;5.74;100.00
35647;BME280;28680;45.642;13.756;2023-02-03T06:07:10;102304.78;;;5.72;100.00
35647;BME280;28680;45.642;13.756;2023-02-03T06:09:36;102289.06;;;5.75;100.00
35647;BME280;28680;45.642;13.756;2023-02-03T06:12:02;102302.63;;;5.85;100.00
35647;BME280;28680;45.642;13.756;2023-02-03T06:14:28;102300.53;;;5.96;100.00
35647;BME280;28680;45.642;13.756;2023-02-03T06:16:54;102306.72;;;5.92;100.00
35647;BME280;28680;45.642;13.756;2023-02-03T06:19:20;102314.53;;;5.92;100.00
35647;BME280;28680;45.642;13.756;2023-02-03T06:21:45;102316.94;;;6.00;100.00
35647;BME280;28680;45.642;13.756;2023-02-03T06:24:13;102319.31;;;6.06;100.00
35647;BME280;28680;45.642;13.756;2023-02-03T06:26:39;102319.88;;;6.14;100.00
35647;BME280;28680;45.642;13.756;2023-02-03T06:29:05;102325.94;;;6.16;100.00
35647;BME280;28680;45.642;13.756;2023-02-03T06:31:31;102320.22;;;6.05;100.00
35647;BME280;28680;45.642;13.756;2023-02-03T06:33:57;102321.97;;;6.04;100.00
35647;BME280;28680;45.642;13.756;2023-02-03T06:36:24;102318.25;;;6.12;100.00
35647;BME280;28680;45.642;13.756;2023-02-03T06:38:49;102328.41;;;6.19;100.00
35647;BME280;28680;45.642;13.756;2023-02-03T06:41:15;102343.22;;;6.19;100.00
35647;BME280;28680;45.642;13.756;2023-02-03T06:43:41;102361.28;;;6.23;100.00
35647;BME280;28680;45.642;13.756;2023-02-03T06:46:07;102354.13;;;6.30;100.00
35647;BME280;28680;45.642;13.756;2023-02-03T06:48:33;102352.28;;;6.34;100.00
35647;BME280;28680;45.642;13.756;2023-02-03T06:50:59;102354.72;;;6.38;100.00
35647;BME280;28680;45.642;13.756;2023-02-03T06:53:25;102352.78;;;6.43;100.00
35647;BME280;28680;45.642;13.756;2023-02-03T06:55:50;102355.56;;;6.39;100.00
35647;BME280;28680;45.642;13.756;2023-02-03T06:58:16;102364.34;;;6.36;100.00
35647;BME280;28680;45.642;13.756;2023-02-03T07:00:42;102360.84;;;6.37;100.00
35647;BME280;28680;45.642;13.756;2023-02-03T07:03:08;102367.88;;;6.35;100.00
35647;BME280;28680;45.642;13.756;2023-02-03T07:05:34;102366.16;;;6.34;100.00
35647;BME280;28680;45.642;13.756;2023-02-03T07:08:03;102361.91;;;6.32;100.00
35647;BME280;28680;45.642;13.756;2023-02-03T07:10:29;102368.66;;;6.37;100.00
35647;BME280;28680;45.642;13.756;2023-02-03T07:13:00;102377.50;;;6.33;100.00
35647;BME280;28680;45.642;13.756;2023-02-03T07:15:26;102386.78;;;6.40;100.00
35647;BME280;28680;45.642;13.756;2023-02-03T07:17:51;102383.84;;;6.51;100.00
35647;BME280;28680;45.642;13.756;2023-02-03T07:20:20;102378.38;;;6.57;100.00
35647;BME280;28680;45.642;13.756;2023-02-03T07:22:52;102361.84;;;6.58;100.00
35647;BME280;28680;45.642;13.756;2023-02-03T07:25:19;102358.38;;;6.58;100.00
35647;BME280;28680;45.642;13.756;2023-02-03T07:27:45;102365.53;;;6.53;100.00
35647;BME280;28680;45.642;13.756;2023-02-03T07:30:12;102373.63;;;6.69;100.00
35647;BME280;28680;45.642;13.756;2023-02-03T07:32:38;102359.47;;;6.76;100.00
35647;BME280;28680;45.642;13.756;2023-02-03T07:35:05;102365.31;;;7.06;100.00
35647;BME280;28680;45.642;13.756;2023-02-03T07:37:31;102362.59;;;7.09;100.00
35647;BME280;28680;45.642;13.756;2023-02-03T07:39:56;102371.44;;;7.29;100.00
35647;BME280;28680;45.642;13.756;2023-02-03T07:42:22;102380.78;;;7.34;100.00
35647;BME280;28680;45.642;13.756;2023-02-03T07:44:48;102381.91;;;7.51;100.00
35647;BME280;28680;45.642;13.756;2023-02-03T07:47:14;102378.13;;;7.80;100.00
35647;BME280;28680;45.642;13.756;2023-02-03T07:49:40;102371.50;;;8.14;100.00
35647;BME280;28680;45.642;13.756;2023-02-03T07:52:06;102359.28;;;8.35;100.00
35647;BME280;28680;45.642;13.756;2023-02-03T07:54:32;102357.22;;;8.43;100.00
35647;BME280;28680;45.642;13.756;2023-02-03T07:56:58;102364.56;;;8.33;100.00
35647;BME280;28680;45.642;13.756;2023-02-03T07:59:24;102362.66;;;8.16;100.00
35647;BME280;28680;45.642;13.756;2023-02-03T08:01:50;102348.38;;;8.25;100.00
35647;BME280;28680;45.642;13.756;2023-02-03T08:04:15;102339.94;;;8.18;100.00
35647;BME280;28680;45.642;13.756;2023-02-03T08:06:44;102344.06;;;8.24;100.00
35647;BME280;28680;45.642;13.756;2023-02-03T08:09:10;102339.84;;;8.20;100.00
35647;BME280;28680;45.642;13.756;2023-02-03T08:11:36;102323.50;;;8.56;100.00
35647;BME280;28680;45.642;13.756;2023-02-03T08:14:02;102328.25;;;8.67;100.00
35647;BME280;28680;45.642;13.756;2023-02-03T08:16:28;102317.44;;;8.93;100.00
35647;BME280;28680;45.642;13.756;2023-02-03T08:18:54;102320.41;;;9.05;100.00
35647;BME280;28680;45.642;13.756;2023-02-03T08:21:20;102314.09;;;9.28;100.00
35647;BME280;28680;45.642;13.756;2023-02-03T08:23:46;102320.03;;;9.68;100.00
35647;BME280;28680;45.642;13.756;2023-02-03T08:26:12;102324.22;;;9.89;100.00
35647;BME280;28680;45.642;13.756;2023-02-03T08:28:38;102298.25;;;10.18;100.00
35647;BME280;28680;45.642;13.756;2023-02-03T08:31:11;102298.91;;;10.57;100.00
35647;BME280;28680;45.642;13.756;2023-02-03T08:33:37;102307.56;;;10.75;100.00
35647;BME280;28680;45.642;13.756;2023-02-03T08:36:04;102305.56;;;11.11;100.00
35647;BME280;28680;45.642;13.756;2023-02-03T08:38:31;102301.81;;;11.31;100.00
35647;BME280;28680;45.642;13.756;2023-02-03T08:40:57;102307.47;;;11.56;100.00
35647;BME280;28680;45.642;13.756;2023-02-03T08:43:23;102310.91;;;11.72;100.00
35647;BME280;28680;45.642;13.756;2023-02-03T08:45:49;102319.28;;;11.95;100.00
35647;BME280;28680;45.642;13.756;2023-02-03T08:48:15;102311.75;;;12.17;100.00
35647;BME280;28680;45.642;13.756;2023-02-03T08:50:42;102314.59;;;12.28;100.00
35647;BME280;28680;45.642;13.756;2023-02-03T08:53:09;102314.03;;;12.38;100.00
35647;BME280;28680;45.642;13.756;2023-02-03T08:55:38;102300.13;;;12.64;100.00
35647;BME280;28680;45.642;13.756;2023-02-03T08:58:04;102303.97;;;13.15;100.00
35647;BME280;28680;45.642;13.756;2023-02-03T09:00:30;102306.06;;;13.10;100.00
35647;BME280;28680;45.642;13.756;2023-02-03T09:02:56;102317.88;;;13.58;100.00
35647;BME280;28680;45.642;13.756;2023-02-03T09:05:22;102310.06;;;13.57;100.00
35647;BME280;28680;45.642;13.756;2023-02-03T09:07:48;102316.72;;;13.50;100.00
35647;BME280;28680;45.642;13.756;2023-02-03T09:10:14;102308.81;;;13.62;100.00
35647;BME280;28680;45.642;13.756;2023-02-03T09:12:40;102301.81;;;14.14;100.00
35647;BME280;28680;45.642;13.756;2023-02-03T09:15:06;102293.34;;;14.48;100.00
35647;BME280;28680;45.642;13.756;2023-02-03T09:17:33;102302.34;;;14.58;100.00
35647;BME280;28680;45.642;13.756;2023-02-03T09:19:59;102299.06;;;14.54;100.00
35647;BME280;28680;45.642;13.756;2023-02-03T09:22:25;102299.38;;;13.98;100.00
35647;BME280;28680;45.642;13.756;2023-02-03T09:24:51;102299.78;;;13.25;100.00
35647;BME280;28680;45.642;13.756;2023-02-03T09:27:17;102307.69;;;12.98;100.00
35647;BME280;28680;45.642;13.756;2023-02-03T09:29:43;102312.34;;;12.80;100.00
35647;BME280;28680;45.642;13.756;2023-02-03T09:32:11;102320.66;;;12.59;100.00
35647;BME280;28680;45.642;13.756;2023-02-03T09:34:37;102331.63;;;12.66;100.00
35647;BME280;28680;45.642;13.756;2023-02-03T09:37:06;102343.97;;;12.65;100.00
35647;BME280;28680;45.642;13.756;2023-02-03T09:39:35;102344.16;;;12.77;100.00
35647;BME280;28680;45.642;13.756;2023-02-03T09:42:27;102342.16;;;12.80;100.00
35647;BME280;28680;45.642;13.756;2023-02-03T09:45:23;102330.09;;;12.91;100.00
35647;BME280;28680;45.642;13.756;2023-02-03T09:47:51;102333.00;;;13.00;100.00
35647;BME280;28680;45.642;13.756;2023-02-03T09:50:24;102319.72;;;13.02;100.00
35647;BME280;28680;45.642;13.756;2023-02-03T09:52:51;102325.47;;;13.09;100.00
35647;BME280;28680;45.642;13.756;2023-02-03T09:55:46;102311.56;;;13.34;100.00
35647;BME280;28680;45.642;13.756;2023-02-03T09:58:16;102329.09;;;13.62;100.00
35647;BME280;28680;45.642;13.756;2023-02-03T10:01:11;102342.78;;;13.94;100.00
35647;BME280;28680;45.642;13.756;2023-02-03T10:04:08;102347.78;;;14.24;100.00
35647;BME280;28680;45.642;13.756;2023-02-03T10:06:43;102345.47;;;14.58;100.00
35647;BME280;28680;45.642;13.756;2023-02-03T10:17:42;102318.53;;;15.51;100.00
35647;BME280;28680;45.642;13.756;2023-02-03T10:22:59;102304.78;;;16.06;100.00
35647;BME280;28680;45.642;13.756;2023-02-03T10:26:08;102301.31;;;16.16;100.00
35647;BME280;28680;45.642;13.756;2023-02-03T10:28:40;102303.56;;;16.21;100.00
35647;BME280;28680;45.642;13.756;2023-02-03T10:31:21;102296.47;;;16.22;100.00
35647;BME280;28680;45.642;13.756;2023-02-03T10:33:58;102286.75;;;16.33;100.00
35647;BME280;28680;45.642;13.756;2023-02-03T10:36:57;102270.06;;;16.65;100.00
35647;BME280;28680;45.642;13.756;2023-02-03T10:42:04;102260.69;;;17.16;100.00
35647;BME280;28680;45.642;13.756;2023-02-03T10:44:50;102257.00;;;17.40;100.00
35647;BME280;28680;45.642;13.756;2023-02-03T10:47:28;102243.78;;;17.49;100.00
35647;BME280;28680;45.642;13.756;2023-02-03T10:50:04;102243.84;;;17.59;100.00
35647;BME280;28680;45.642;13.756;2023-02-03T10:52:34;102252.63;;;17.92;100.00
35647;BME280;28680;45.642;13.756;2023-02-03T10:57:48;102249.97;;;18.23;100.00
35647;BME280;28680;45.642;13.756;2023-02-03T11:00:31;102236.16;;;18.39;100.00
35647;BME280;28680;45.642;13.756;2023-02-03T11:05:39;102221.34;;;18.36;100.00
35647;BME280;28680;45.642;13.756;2023-02-03T11:08:18;102221.09;;;18.49;100.00
35647;BME280;28680;45.642;13.756;2023-02-03T11:11:08;102209.81;;;18.76;100.00
35647;BME280;28680;45.642;13.756;2023-02-03T11:13:45;102211.25;;;18.80;100.00
35647;BME280;28680;45.642;13.756;2023-02-03T11:16:18;102206.44;;;18.74;100.00
35647;BME280;28680;45.642;13.756;2023-02-03T11:18:56;102198.66;;;18.82;100.00
35647;BME280;28680;45.642;13.756;2023-02-03T11:24:33;102190.69;;;19.12;100.00
35647;BME280;28680;45.642;13.756;2023-02-03T11:27:15;102180.41;;;19.46;100.00
35647;BME280;28680;45.642;13.756;2023-02-03T11:29:46;102165.97;;;19.39;100.00
35647;BME280;28680;45.642;13.756;2023-02-03T11:32:35;102162.63;;;19.37;100.00
35647;BME280;28680;45.642;13.756;2023-02-03T11:35:23;102160.06;;;19.45;100.00
35647;BME280;28680;45.642;13.756;2023-02-03T11:37:58;102145.81;;;19.36;100.00
35647;BME280;28680;45.642;13.756;2023-02-03T11:40:29;102138.25;;;19.41;100.00
35647;BME280;28680;45.642;13.756;2023-02-03T11:49:04;102115.59;;;20.20;100.00
35647;BME280;28680;45.642;13.756;2023-02-03T11:55:03;102118.44;;;20.37;100.00
35647;BME280;28680;45.642;13.756;2023-02-03T12:00:49;102102.22;;;20.30;100.00
35647;BME280;28680;45.642;13.756;2023-02-03T12:16:16;102088.06;;;19.84;100.00
35647;BME280;28680;45.642;13.756;2023-02-03T12:22:26;102084.97;;;18.94;100.00
35647;BME280;28680;45.642;13.756;2023-02-03T12:25:19;102067.56;;;19.57;100.00
35647;BME280;28680;45.642;13.756;2023-02-03T12:28:28;102053.19;;;19.67;100.00
35647;BME280;28680;45.642;13.756;2023-02-03T12:30:52;102037.13;;;19.59;100.00
35647;BME280;28680;45.642;13.756;2023-02-03T12:33:41;102036.53;;;19.38;100.00
35647;BME280;28680;45.642;13.756;2023-02-03T12:36:19;102038.50;;;19.26;100.00
35647;BME280;28680;45.642;13.756;2023-02-03T12:38:56;102025.28;;;19.44;100.00
35647;BME280;28680;45.642;13.756;2023-02-03T12:41:30;102015.50;;;19.72;100.00
35647;BME280;28680;45.642;13.756;2023-02-03T12:44:41;102022.75;;;19.42;100.00
35647;BME280;28680;45.642;13.756;2023-02-03T12:47:41;102026.38;;;19.51;100.00
35647;BME280;28680;45.642;13.756;2023-02-03T12:50:47;102018.97;;;19.45;100.00
35647;BME280;28680;45.642;13.756;2023-02-03T12:56:21;102028.00;;;18.77;100.00
35647;BME280;28680;45.642;13.756;2023-02-03T12:58:55;102031.25;;;18.22;100.00
35647;BME280;28680;45.642;13.756;2023-02-03T13:01:39;102025.94;;;18.32;100.00
35647;BME280;28680;45.642;13.756;2023-02-03T13:04:25;102013.47;;;17.63;100.00
35647;BME280;28680;45.642;13.756;2023-02-03T13:07:17;102002.97;;;17.61;100.00
35647;BME280;28680;45.642;13.756;2023-02-03T13:10:02;102011.72;;;17.42;100.00
35647;BME280;28680;45.642;13.756;2023-02-03T13:12:50;102007.47;;;17.20;100.00
35647;BME280;28680;45.642;13.756;2023-02-03T13:15:43;101991.44;;;16.80;100.00
35647;BME280;28680;45.642;13.756;2023-02-03T13:18:32;101977.13;;;17.63;100.00
35647;BME280;28680;45.642;13.756;2023-02-03T13:20:59;101978.84;;;17.64;100.00
35647;BME280;28680;45.642;13.756;2023-02-03T13:23:25;101970.88;;;17.24;100.00
35647;BME280;28680;45.642;13.756;2023-02-03T13:34:33;101957.13;;;18.00;100.00
35647;BME280;28680;45.642;13.756;2023-02-03T13:37:27;101956.13;;;18.20;100.00
35647;BME280;28680;45.642;13.756;2023-02-03T13:40:19;101952.91;;;16.97;100.00
35647;BME280;28680;45.642;13.756;2023-02-03T13:43:00;101959.81;;;16.67;100.00
35647;BME280;28680;45.642;13.756;2023-02-03T13:45:44;101957.88;;;16.27;100.00
35647;BME280;28680;45.642;13.756;2023-02-03T13:50:40;101961.47;;;16.58;100.00
35647;BME280;28680;45.642;13.756;2023-02-03T13:53:21;101970.28;;;16.26;100.00
35647;BME280;28680;45.642;13.756;2023-02-03T13:56:23;101960.03;;;16.01;100.00
35647;BME280;28680;45.642;13.756;2023-02-03T13:59:27;101962.59;;;15.91;100.00
35647;BME280;28680;45.642;13.756;2023-02-03T14:07:38;101940.59;;;15.79;100.00
35647;BME280;28680;45.642;13.756;2023-02-03T14:10:20;101937.13;;;15.78;100.00
35647;BME280;28680;45.642;13.756;2023-02-03T14:15:30;101941.81;;;15.64;100.00
35647;BME280;28680;45.642;13.756;2023-02-03T14:25:44;101942.38;;;14.90;100.00
35647;BME280;28680;45.642;13.756;2023-02-03T14:28:37;101931.19;;;14.97;100.00
35647;BME280;28680;45.642;13.756;2023-02-03T14:31:22;101939.97;;;14.98;100.00
35647;BME280;28680;45.642;13.756;2023-02-03T14:34:10;101930.19;;;14.76;100.00
35647;BME280;28680;45.642;13.756;2023-02-03T14:36:47;101925.50;;;14.57;100.00
35647;BME280;28680;45.642;13.756;2023-02-03T14:42:21;101937.75;;;14.58;100.00
35647;BME280;28680;45.642;13.756;2023-02-03T14:48:53;101924.06;;;14.64;100.00
35647;BME280;28680;45.642;13.756;2023-02-03T14:55:00;101911.06;;;14.61;100.00
35647;BME280;28680;45.642;13.756;2023-02-03T14:57:46;101908.38;;;14.50;100.00
35647;BME280;28680;45.642;13.756;2023-02-03T15:05:43;101896.81;;;14.86;100.00
35647;BME280;28680;45.642;13.756;2023-02-03T15:08:36;101895.56;;;14.56;100.00
35647;BME280;28680;45.642;13.756;2023-02-03T15:11:32;101888.16;;;14.73;100.00
35647;BME280;28680;45.642;13.756;2023-02-03T15:14:33;101882.16;;;14.71;100.00
35647;BME280;28680;45.642;13.756;2023-02-03T15:17:02;101883.16;;;14.46;100.00
35647;BME280;28680;45.642;13.756;2023-02-03T15:19:40;101881.09;;;14.27;100.00
35647;BME280;28680;45.642;13.756;2023-02-03T15:25:00;101891.34;;;14.07;100.00
35647;BME280;28680;45.642;13.756;2023-02-03T15:27:31;101894.56;;;13.99;100.00
35647;BME280;28680;45.642;13.756;2023-02-03T15:29:57;101889.03;;;13.67;100.00
35647;BME280;28680;45.642;13.756;2023-02-03T15:32:40;101902.53;;;13.62;100.00
35647;BME280;28680;45.642;13.756;2023-02-03T15:35:13;101902.06;;;13.57;100.00
35647;BME280;28680;45.642;13.756;2023-02-03T15:37:55;101891.13;;;13.38;100.00
35647;BME280;28680;45.642;13.756;2023-02-03T15:40:29;101902.66;;;13.37;100.00
35647;BME280;28680;45.642;13.756;2023-02-03T15:43:20;101892.75;;;13.15;100.00
35647;BME280;28680;45.642;13.756;2023-02-03T15:46:07;101894.75;;;13.11;100.00
35647;BME280;28680;45.642;13.756;2023-02-03T15:49:15;101890.47;;;12.97;100.00
35647;BME280;28680;45.642;13.756;2023-02-03T15:54:33;101869.72;;;12.80;100.00
35647;BME280;28680;45.642;13.756;2023-02-03T15:57:31;101861.19;;;12.76;100.00
35647;BME280;28680;45.642;13.756;2023-02-03T16:00:08;101866.56;;;12.75;100.00
35647;BME280;28680;45.642;13.756;2023-02-03T16:02:43;101858.38;;;12.66;100.00
35647;BME280;28680;45.642;13.756;2023-02-03T16:05:32;101858.13;;;12.82;100.00
35647;BME280;28680;45.642;13.756;2023-02-03T16:10:51;101860.75;;;12.57;100.00
35647;BME280;28680;45.642;13.756;2023-02-03T16:13:21;101857.63;;;12.52;100.00
35647;BME280;28680;45.642;13.756;2023-02-03T16:16:14;101839.28;;;12.37;100.00